sensor_id;sensor_type;location;lat;lon;timestamp;temperature;humidity
10891;DHT22;5498;50.928;11.598;2023-03-24T00:01:06;13.40;81.20
10891;DHT22;5498;50.928;11.598;2023-03-24T00:04:08;13.30;81.40
10891;DHT22;5498;50.928;11.598;2023-03-24T00:07:10;13.30;81.60
10891;DHT22;5498;50.928;11.598;2023-03-24T00:10:16;13.20;81.90
10891;DHT22;5498;50.928;11.598;2023-03-24T00:13:19;13.30;82.10
10891;DHT22;5498;50.928;11.598;2023-03-24T00:16:21;13.30;82.00
10891;DHT22;5498;50.928;11.598;2023-03-24T00:19:24;13.30;82.20
10891;DHT22;5498;50.928;11.598;2023-03-24T00:22:26;13.40;82.30
10891;DHT22;5498;50.928;11.598;2023-03-24T00:25:30;13.50;82.40
10891;DHT22;5498;50.928;11.598;2023-03-24T00:28:36;13.50;82.40
10891;DHT22;5498;50.928;11.598;2023-03-24T00:31:38;13.50;82.40
10891;DHT22;5498;50.928;11.598;2023-03-24T00:34:40;13.50;82.70
10891;DHT22;5498;50.928;11.598;2023-03-24T00:37:43;13.50;82.50
10891;DHT22;5498;50.928;11.598;2023-03-24T00:40:46;13.50;82.70
10891;DHT22;5498;50.928;11.598;2023-03-24T00:43:49;13.50;82.60
10891;DHT22;5498;50.928;11.598;2023-03-24T00:46:52;13.50;82.50
10891;DHT22;5498;50.928;11.598;2023-03-24T00:49:55;13.50;82.50
10891;DHT22;5498;50.928;11.598;2023-03-24T00:52:57;13.60;82.30
10891;DHT22;5498;50.928;11.598;2023-03-24T00:56:03;13.50;82.30
10891;DHT22;5498;50.928;11.598;2023-03-24T00:59:05;13.60;82.40
10891;DHT22;5498;50.928;11.598;2023-03-24T01:02:09;13.50;82.70
10891;DHT22;5498;50.928;11.598;2023-03-24T01:05:12;13.50;82.80
10891;DHT22;5498;50.928;11.598;2023-03-24T01:08:17;13.50;83.00
10891;DHT22;5498;50.928;11.598;2023-03-24T01:11:22;13.50;82.80
10891;DHT22;5498;50.928;11.598;2023-03-24T01:14:26;13.50;82.70
10891;DHT22;5498;50.928;11.598;2023-03-24T01:17:28;13.50;82.50
10891;DHT22;5498;50.928;11.598;2023-03-24T01:20:30;13.50;82.40
10891;DHT22;5498;50.928;11.598;2023-03-24T01:23:33;13.50;82.50
10891;DHT22;5498;50.928;11.598;2023-03-24T01:26:36;13.60;82.60
10891;DHT22;5498;50.928;11.598;2023-03-24T01:29:38;13.60;82.30
10891;DHT22;5498;50.928;11.598;2023-03-24T01:32:41;13.60;82.20
10891;DHT22;5498;50.928;11.598;2023-03-24T01:35:43;13.70;82.80
10891;DHT22;5498;50.928;11.598;2023-03-24T01:38:45;13.70;81.90
10891;DHT22;5498;50.928;11.598;2023-03-24T01:41:48;13.80;81.80
10891;DHT22;5498;50.928;11.598;2023-03-24T01:44:53;13.80;81.70
10891;DHT22;5498;50.928;11.598;2023-03-24T01:47:56;13.80;81.70
10891;DHT22;5498;50.928;11.598;2023-03-24T01:51:00;13.90;81.70
10891;DHT22;5498;50.928;11.598;2023-03-24T01:54:09;13.90;81.80
10891;DHT22;5498;50.928;11.598;2023-03-24T01:57:19;13.90;82.00
10891;DHT22;5498;50.928;11.598;2023-03-24T02:00:23;14.00;82.30
10891;DHT22;5498;50.928;11.598;2023-03-24T02:03:26;14.00;82.60
10891;DHT22;5498;50.928;11.598;2023-03-24T02:06:36;14.00;83.40
10891;DHT22;5498;50.928;11.598;2023-03-24T02:09:40;14.00;83.50
10891;DHT22;5498;50.928;11.598;2023-03-24T02:12:43;14.00;83.50
10891;DHT22;5498;50.928;11.598;2023-03-24T02:15:57;14.00;83.80
10891;DHT22;5498;50.928;11.598;2023-03-24T02:23:11;14.00;85.00
10891;DHT22;5498;50.928;11.598;2023-03-24T02:26:59;14.00;85.30
10891;DHT22;5498;50.928;11.598;2023-03-24T02:34:19;13.90;86.00
10891;DHT22;5498;50.928;11.598;2023-03-24T02:37:54;13.90;86.20
10891;DHT22;5498;50.928;11.598;2023-03-24T02:41:14;13.90;86.30
10891;DHT22;5498;50.928;11.598;2023-03-24T02:44:20;13.80;86.20
10891;DHT22;5498;50.928;11.598;2023-03-24T02:47:31;13.80;86.50
10891;DHT22;5498;50.928;11.598;2023-03-24T02:50:38;13.80;86.50
10891;DHT22;5498;50.928;11.598;2023-03-24T02:53:51;13.80;86.60
10891;DHT22;5498;50.928;11.598;2023-03-24T02:57:03;13.80;86.90
10891;DHT22;5498;50.928;11.598;2023-03-24T03:00:10;13.80;86.70
10891;DHT22;5498;50.928;11.598;2023-03-24T03:03:20;13.80;86.60
10891;DHT22;5498;50.928;11.598;2023-03-24T03:06:27;13.80;86.70
10891;DHT22;5498;50.928;11.598;2023-03-24T03:09:31;13.80;86.60
10891;DHT22;5498;50.928;11.598;2023-03-24T03:12:36;13.70;86.80
10891;DHT22;5498;50.928;11.598;2023-03-24T03:15:43;13.70;86.90
10891;DHT22;5498;50.928;11.598;2023-03-24T03:18:50;13.70;86.90
10891;DHT22;5498;50.928;11.598;2023-03-24T03:21:55;13.70;87.00
10891;DHT22;5498;50.928;11.598;2023-03-24T03:25:00;13.70;86.80
10891;DHT22;5498;50.928;11.598;2023-03-24T03:28:05;13.70;86.90
10891;DHT22;5498;50.928;11.598;2023-03-24T03:31:12;13.60;86.70
10891;DHT22;5498;50.928;11.598;2023-03-24T03:34:21;13.60;86.80
10891;DHT22;5498;50.928;11.598;2023-03-24T03:37:35;13.60;86.70
10891;DHT22;5498;50.928;11.598;2023-03-24T03:40:42;13.60;86.80
10891;DHT22;5498;50.928;11.598;2023-03-24T03:43:52;13.70;86.70
10891;DHT22;5498;50.928;11.598;2023-03-24T03:46:54;13.60;86.70
10891;DHT22;5498;50.928;11.598;2023-03-24T03:49:56;13.60;86.60
10891;DHT22;5498;50.928;11.598;2023-03-24T03:52:58;13.60;86.90
10891;DHT22;5498;50.928;11.598;2023-03-24T03:56:00;13.50;86.90
10891;DHT22;5498;50.928;11.598;2023-03-24T03:59:06;13.50;87.00
10891;DHT22;5498;50.928;11.598;2023-03-24T04:02:19;13.50;87.10
10891;DHT22;5498;50.928;11.598;2023-03-24T04:05:30;13.40;87.40
10891;DHT22;5498;50.928;11.598;2023-03-24T04:08:43;13.40;87.40
10891;DHT22;5498;50.928;11.598;2023-03-24T04:12:03;13.30;87.60
10891;DHT22;5498;50.928;11.598;2023-03-24T04:15:35;13.40;87.60
10891;DHT22;5498;50.928;11.598;2023-03-24T04:18:47;13.30;87.60
10891;DHT22;5498;50.928;11.598;2023-03-24T04:22:06;13.30;87.30
10891;DHT22;5498;50.928;11.598;2023-03-24T04:25:21;13.40;87.30
10891;DHT22;5498;50.928;11.598;2023-03-24T04:28:37;13.40;87.20
10891;DHT22;5498;50.928;11.598;2023-03-24T04:31:45;13.40;87.00
10891;DHT22;5498;50.928;11.598;2023-03-24T04:34:55;13.40;87.00
10891;DHT22;5498;50.928;11.598;2023-03-24T04:38:03;13.40;87.10
10891;DHT22;5498;50.928;11.598;2023-03-24T04:41:08;13.40;87.10
10891;DHT22;5498;50.928;11.598;2023-03-24T04:44:10;13.30;86.80
10891;DHT22;5498;50.928;11.598;2023-03-24T04:47:14;13.30;86.80
10891;DHT22;5498;50.928;11.598;2023-03-24T04:50:26;13.30;86.70
10891;DHT22;5498;50.928;11.598;2023-03-24T04:53:30;13.30;86.60
10891;DHT22;5498;50.928;11.598;2023-03-24T04:56:38;13.30;86.20
10891;DHT22;5498;50.928;11.598;2023-03-24T04:59:42;13.40;86.30
10891;DHT22;5498;50.928;11.598;2023-03-24T05:02:45;13.40;85.90
10891;DHT22;5498;50.928;11.598;2023-03-24T05:05:49;13.40;85.80
10891;DHT22;5498;50.928;11.598;2023-03-24T05:08:51;13.50;85.70
10891;DHT22;5498;50.928;11.598;2023-03-24T05:11:53;13.50;85.80
10891;DHT22;5498;50.928;11.598;2023-03-24T05:14:55;13.50;85.40
10891;DHT22;5498;50.928;11.598;2023-03-24T05:17:58;13.50;85.30
10891;DHT22;5498;50.928;11.598;2023-03-24T05:21:00;13.60;85.20
10891;DHT22;5498;50.928;11.598;2023-03-24T05:24:02;13.60;84.80
10891;DHT22;5498;50.928;11.598;2023-03-24T05:27:04;13.60;84.70
10891;DHT22;5498;50.928;11.598;2023-03-24T05:30:07;13.60;84.30
10891;DHT22;5498;50.928;11.598;2023-03-24T05:33:11;13.70;84.50
10891;DHT22;5498;50.928;11.598;2023-03-24T05:36:12;13.70;84.30
10891;DHT22;5498;50.928;11.598;2023-03-24T05:39:14;13.70;84.30
10891;DHT22;5498;50.928;11.598;2023-03-24T05:42:16;13.70;84.30
10891;DHT22;5498;50.928;11.598;2023-03-24T05:45:18;13.70;84.10
10891;DHT22;5498;50.928;11.598;2023-03-24T05:48:22;13.80;83.90
10891;DHT22;5498;50.928;11.598;2023-03-24T05:51:24;13.80;83.80
10891;DHT22;5498;50.928;11.598;2023-03-24T05:54:25;13.90;83.80
10891;DHT22;5498;50.928;11.598;2023-03-24T05:57:27;13.90;83.60
10891;DHT22;5498;50.928;11.598;2023-03-24T06:00:31;13.90;83.30
10891;DHT22;5498;50.928;11.598;2023-03-24T06:03:34;13.90;83.30
10891;DHT22;5498;50.928;11.598;2023-03-24T06:06:38;13.90;83.10
10891;DHT22;5498;50.928;11.598;2023-03-24T06:09:40;13.90;83.00
10891;DHT22;5498;50.928;11.598;2023-03-24T06:12:46;14.00;83.30
10891;DHT22;5498;50.928;11.598;2023-03-24T06:15:47;14.00;83.10
10891;DHT22;5498;50.928;11.598;2023-03-24T06:18:51;14.10;83.00
10891;DHT22;5498;50.928;11.598;2023-03-24T06:21:53;14.10;82.80
10891;DHT22;5498;50.928;11.598;2023-03-24T06:24:55;14.20;82.80
10891;DHT22;5498;50.928;11.598;2023-03-24T06:27:58;14.20;82.50
10891;DHT22;5498;50.928;11.598;2023-03-24T06:31:04;14.20;82.70
10891;DHT22;5498;50.928;11.598;2023-03-24T06:34:08;14.30;81.80
10891;DHT22;5498;50.928;11.598;2023-03-24T06:37:10;14.30;81.30
10891;DHT22;5498;50.928;11.598;2023-03-24T06:40:12;14.30;81.40
10891;DHT22;5498;50.928;11.598;2023-03-24T06:43:16;14.40;81.40
10891;DHT22;5498;50.928;11.598;2023-03-24T06:46:18;14.40;81.30
10891;DHT22;5498;50.928;11.598;2023-03-24T06:49:21;14.50;80.90
10891;DHT22;5498;50.928;11.598;2023-03-24T06:52:23;14.50;81.00
10891;DHT22;5498;50.928;11.598;2023-03-24T06:55:27;14.50;80.70
10891;DHT22;5498;50.928;11.598;2023-03-24T06:58:29;14.50;81.10
10891;DHT22;5498;50.928;11.598;2023-03-24T07:01:31;14.50;81.50
10891;DHT22;5498;50.928;11.598;2023-03-24T07:04:35;14.50;81.80
10891;DHT22;5498;50.928;11.598;2023-03-24T07:07:37;14.50;82.00
10891;DHT22;5498;50.928;11.598;2023-03-24T07:10:41;14.60;82.40
10891;DHT22;5498;50.928;11.598;2023-03-24T07:13:42;14.60;82.50
10891;DHT22;5498;50.928;11.598;2023-03-24T07:16:44;14.60;82.80
10891;DHT22;5498;50.928;11.598;2023-03-24T07:19:47;14.60;83.10
10891;DHT22;5498;50.928;11.598;2023-03-24T07:22:49;14.60;83.20
10891;DHT22;5498;50.928;11.598;2023-03-24T07:25:51;14.60;83.20
10891;DHT22;5498;50.928;11.598;2023-03-24T07:28:54;14.60;83.70
10891;DHT22;5498;50.928;11.598;2023-03-24T07:31:56;14.60;83.40
10891;DHT22;5498;50.928;11.598;2023-03-24T07:35:01;14.60;84.00
10891;DHT22;5498;50.928;11.598;2023-03-24T07:38:04;14.60;84.20
10891;DHT22;5498;50.928;11.598;2023-03-24T07:41:05;14.50;84.00
10891;DHT22;5498;50.928;11.598;2023-03-24T07:44:07;14.50;84.20
10891;DHT22;5498;50.928;11.598;2023-03-24T07:47:09;14.50;84.60
10891;DHT22;5498;50.928;11.598;2023-03-24T07:50:13;14.50;84.80
10891;DHT22;5498;50.928;11.598;2023-03-24T07:53:15;14.50;85.10
10891;DHT22;5498;50.928;11.598;2023-03-24T07:56:19;14.50;85.00
10891;DHT22;5498;50.928;11.598;2023-03-24T07:59:21;14.60;85.10
10891;DHT22;5498;50.928;11.598;2023-03-24T08:02:23;14.60;84.80
10891;DHT22;5498;50.928;11.598;2023-03-24T08:05:28;14.60;84.80
10891;DHT22;5498;50.928;11.598;2023-03-24T08:08:30;14.60;85.00
10891;DHT22;5498;50.928;11.598;2023-03-24T08:11:32;14.60;84.70
10891;DHT22;5498;50.928;11.598;2023-03-24T08:14:35;14.60;84.50
10891;DHT22;5498;50.928;11.598;2023-03-24T08:17:37;14.70;84.20
10891;DHT22;5498;50.928;11.598;2023-03-24T08:20:40;14.70;84.40
10891;DHT22;5498;50.928;11.598;2023-03-24T08:23:42;14.70;84.20
10891;DHT22;5498;50.928;11.598;2023-03-24T08:26:44;14.70;84.00
10891;DHT22;5498;50.928;11.598;2023-03-24T08:29:47;14.80;83.80
10891;DHT22;5498;50.928;11.598;2023-03-24T08:32:51;14.80;83.20
10891;DHT22;5498;50.928;11.598;2023-03-24T08:35:55;14.80;83.40
10891;DHT22;5498;50.928;11.598;2023-03-24T08:38:58;14.90;83.30
10891;DHT22;5498;50.928;11.598;2023-03-24T08:42:00;14.90;82.90
10891;DHT22;5498;50.928;11.598;2023-03-24T08:45:03;15.00;83.00
10891;DHT22;5498;50.928;11.598;2023-03-24T08:48:07;15.10;82.80
10891;DHT22;5498;50.928;11.598;2023-03-24T08:51:16;15.20;83.30
10891;DHT22;5498;50.928;11.598;2023-03-24T08:54:18;15.30;83.40
10891;DHT22;5498;50.928;11.598;2023-03-24T08:57:22;15.50;83.40
10891;DHT22;5498;50.928;11.598;2023-03-24T09:00:24;15.60;82.90
10891;DHT22;5498;50.928;11.598;2023-03-24T09:03:30;15.80;82.70
10891;DHT22;5498;50.928;11.598;2023-03-24T09:06:40;16.10;81.70
10891;DHT22;5498;50.928;11.598;2023-03-24T09:09:42;16.30;81.00
10891;DHT22;5498;50.928;11.598;2023-03-24T09:12:44;16.40;80.30
10891;DHT22;5498;50.928;11.598;2023-03-24T09:15:47;16.50;79.80
10891;DHT22;5498;50.928;11.598;2023-03-24T09:18:50;16.60;79.30
10891;DHT22;5498;50.928;11.598;2023-03-24T09:21:53;16.60;78.80
10891;DHT22;5498;50.928;11.598;2023-03-24T09:24:55;16.70;78.90
10891;DHT22;5498;50.928;11.598;2023-03-24T09:27:57;16.80;78.30
10891;DHT22;5498;50.928;11.598;2023-03-24T09:31:01;16.80;77.40
10891;DHT22;5498;50.928;11.598;2023-03-24T09:34:05;16.90;77.10
10891;DHT22;5498;50.928;11.598;2023-03-24T09:37:08;17.00;76.70
10891;DHT22;5498;50.928;11.598;2023-03-24T09:40:17;17.00;76.70
10891;DHT22;5498;50.928;11.598;2023-03-24T09:43:26;17.00;76.70
10891;DHT22;5498;50.928;11.598;2023-03-24T09:46:34;17.00;76.80
10891;DHT22;5498;50.928;11.598;2023-03-24T09:49:39;17.00;76.50
10891;DHT22;5498;50.928;11.598;2023-03-24T09:52:47;16.90;76.30
10891;DHT22;5498;50.928;11.598;2023-03-24T09:55:51;16.90;76.60
10891;DHT22;5498;50.928;11.598;2023-03-24T09:59:02;16.90;76.00
10891;DHT22;5498;50.928;11.598;2023-03-24T10:02:10;17.10;76.30
10891;DHT22;5498;50.928;11.598;2023-03-24T10:05:19;17.00;76.10
10891;DHT22;5498;50.928;11.598;2023-03-24T10:08:27;17.00;75.90
10891;DHT22;5498;50.928;11.598;2023-03-24T10:11:36;17.20;76.20
10891;DHT22;5498;50.928;11.598;2023-03-24T10:14:49;17.60;75.80
10891;DHT22;5498;50.928;11.598;2023-03-24T10:18:15;17.50;74.60
10891;DHT22;5498;50.928;11.598;2023-03-24T10:21:27;17.70;73.60
10891;DHT22;5498;50.928;11.598;2023-03-24T10:24:38;17.80;72.80
10891;DHT22;5498;50.928;11.598;2023-03-24T10:27:46;17.90;72.30
10891;DHT22;5498;50.928;11.598;2023-03-24T10:30:50;17.90;72.30
10891;DHT22;5498;50.928;11.598;2023-03-24T10:33:53;17.90;72.60
10891;DHT22;5498;50.928;11.598;2023-03-24T10:36:57;17.90;72.30
10891;DHT22;5498;50.928;11.598;2023-03-24T10:40:13;17.90;72.40
10891;DHT22;5498;50.928;11.598;2023-03-24T10:43:20;17.80;72.50
10891;DHT22;5498;50.928;11.598;2023-03-24T10:46:26;17.80;72.90
10891;DHT22;5498;50.928;11.598;2023-03-24T10:49:29;17.80;73.30
10891;DHT22;5498;50.928;11.598;2023-03-24T10:52:37;17.80;72.70
10891;DHT22;5498;50.928;11.598;2023-03-24T10:55:41;17.70;72.80
10891;DHT22;5498;50.928;11.598;2023-03-24T10:58:44;17.70;72.50
10891;DHT22;5498;50.928;11.598;2023-03-24T11:01:47;17.80;73.30
10891;DHT22;5498;50.928;11.598;2023-03-24T11:04:54;17.60;74.20
10891;DHT22;5498;50.928;11.598;2023-03-24T11:08:11;17.60;75.50
10891;DHT22;5498;50.928;11.598;2023-03-24T11:11:29;17.50;76.50
10891;DHT22;5498;50.928;11.598;2023-03-24T11:14:31;17.40;77.20
10891;DHT22;5498;50.928;11.598;2023-03-24T11:17:33;17.30;77.50
10891;DHT22;5498;50.928;11.598;2023-03-24T11:20:37;17.30;78.10
10891;DHT22;5498;50.928;11.598;2023-03-24T11:23:58;17.20;79.30
10891;DHT22;5498;50.928;11.598;2023-03-24T11:27:02;17.10;79.80
10891;DHT22;5498;50.928;11.598;2023-03-24T11:30:10;17.00;79.60
10891;DHT22;5498;50.928;11.598;2023-03-24T11:33:19;16.90;79.10
10891;DHT22;5498;50.928;11.598;2023-03-24T11:36:56;16.80;79.40
10891;DHT22;5498;50.928;11.598;2023-03-24T11:40:19;16.60;78.80
10891;DHT22;5498;50.928;11.598;2023-03-24T11:43:24;16.40;78.90
10891;DHT22;5498;50.928;11.598;2023-03-24T11:46:27;16.20;78.90
10891;DHT22;5498;50.928;11.598;2023-03-24T11:49:30;15.90;79.60
10891;DHT22;5498;50.928;11.598;2023-03-24T11:52:36;15.70;80.40
10891;DHT22;5498;50.928;11.598;2023-03-24T11:55:46;15.60;80.70
10891;DHT22;5498;50.928;11.598;2023-03-24T11:58:55;15.40;80.90
10891;DHT22;5498;50.928;11.598;2023-03-24T12:02:09;15.20;81.00
10891;DHT22;5498;50.928;11.598;2023-03-24T12:05:28;15.10;81.70
10891;DHT22;5498;50.928;11.598;2023-03-24T12:08:40;15.00;82.20
10891;DHT22;5498;50.928;11.598;2023-03-24T12:15:42;14.80;82.50
10891;DHT22;5498;50.928;11.598;2023-03-24T12:19:05;14.70;82.30
10891;DHT22;5498;50.928;11.598;2023-03-24T12:22:23;14.50;82.20
10891;DHT22;5498;50.928;11.598;2023-03-24T12:25:41;14.50;82.10
10891;DHT22;5498;50.928;11.598;2023-03-24T12:29:26;14.40;82.60
10891;DHT22;5498;50.928;11.598;2023-03-24T12:32:52;14.30;82.20
10891;DHT22;5498;50.928;11.598;2023-03-24T12:36:19;14.20;82.30
10891;DHT22;5498;50.928;11.598;2023-03-24T12:39:33;14.20;83.10
10891;DHT22;5498;50.928;11.598;2023-03-24T12:42:38;14.10;83.40
10891;DHT22;5498;50.928;11.598;2023-03-24T12:45:43;14.10;83.40
10891;DHT22;5498;50.928;11.598;2023-03-24T12:49:00;14.00;83.50
10891;DHT22;5498;50.928;11.598;2023-03-24T12:52:28;14.00;83.50
10891;DHT22;5498;50.928;11.598;2023-03-24T12:55:41;14.00;83.40
10891;DHT22;5498;50.928;11.598;2023-03-24T12:58:48;14.00;83.50
10891;DHT22;5498;50.928;11.598;2023-03-24T13:01:54;14.00;83.70
10891;DHT22;5498;50.928;11.598;2023-03-24T13:05:04;14.00;83.70
10891;DHT22;5498;50.928;11.598;2023-03-24T13:08:12;14.00;83.30
10891;DHT22;5498;50.928;11.598;2023-03-24T13:11:19;14.00;83.00
10891;DHT22;5498;50.928;11.598;2023-03-24T13:14:26;14.00;82.60
10891;DHT22;5498;50.928;11.598;2023-03-24T13:17:33;14.00;82.60
10891;DHT22;5498;50.928;11.598;2023-03-24T13:20:43;14.10;82.20
10891;DHT22;5498;50.928;11.598;2023-03-24T13:23:51;14.20;81.50
10891;DHT22;5498;50.928;11.598;2023-03-24T13:27:01;14.20;81.40
10891;DHT22;5498;50.928;11.598;2023-03-24T13:30:30;14.20;80.40
10891;DHT22;5498;50.928;11.598;2023-03-24T13:33:35;14.20;79.90
10891;DHT22;5498;50.928;11.598;2023-03-24T13:36:43;14.20;79.60
10891;DHT22;5498;50.928;11.598;2023-03-24T13:39:50;14.20;79.60
10891;DHT22;5498;50.928;11.598;2023-03-24T13:42:56;14.30;79.50
10891;DHT22;5498;50.928;11.598;2023-03-24T13:46:00;14.30;79.20
10891;DHT22;5498;50.928;11.598;2023-03-24T13:49:04;14.30;77.90
10891;DHT22;5498;50.928;11.598;2023-03-24T13:52:26;14.30;77.90
10891;DHT22;5498;50.928;11.598;2023-03-24T13:55:30;14.30;76.60
10891;DHT22;5498;50.928;11.598;2023-03-24T13:58:48;14.30;76.80
10891;DHT22;5498;50.928;11.598;2023-03-24T14:02:17;14.30;77.00
10891;DHT22;5498;50.928;11.598;2023-03-24T14:05:39;14.20;76.70
10891;DHT22;5498;50.928;11.598;2023-03-24T14:09:00;14.20;74.90
10891;DHT22;5498;50.928;11.598;2023-03-24T14:12:17;14.20;75.20
10891;DHT22;5498;50.928;11.598;2023-03-24T14:15:21;14.10;75.60
10891;DHT22;5498;50.928;11.598;2023-03-24T14:18:40;14.10;76.20
10891;DHT22;5498;50.928;11.598;2023-03-24T14:21:43;14.10;76.10
10891;DHT22;5498;50.928;11.598;2023-03-24T14:24:56;14.10;76.30
10891;DHT22;5498;50.928;11.598;2023-03-24T14:28:18;14.10;74.60
10891;DHT22;5498;50.928;11.598;2023-03-24T14:31:23;14.20;75.60
10891;DHT22;5498;50.928;11.598;2023-03-24T14:34:28;14.20;75.70
10891;DHT22;5498;50.928;11.598;2023-03-24T14:37:30;14.20;75.40
10891;DHT22;5498;50.928;11.598;2023-03-24T14:40:38;14.30;75.00
10891;DHT22;5498;50.928;11.598;2023-03-24T14:43:56;14.30;75.90
10891;DHT22;5498;50.928;11.598;2023-03-24T14:46:58;14.40;75.40
10891;DHT22;5498;50.928;11.598;2023-03-24T14:50:08;14.40;73.50
10891;DHT22;5498;50.928;11.598;2023-03-24T14:53:18;14.40;73.50
10891;DHT22;5498;50.928;11.598;2023-03-24T14:56:21;14.40;74.10
10891;DHT22;5498;50.928;11.598;2023-03-24T14:59:34;14.40;73.70
10891;DHT22;5498;50.928;11.598;2023-03-24T15:02:41;14.40;72.20
10891;DHT22;5498;50.928;11.598;2023-03-24T15:05:44;14.40;71.20
10891;DHT22;5498;50.928;11.598;2023-03-24T15:08:49;14.50;70.00
10891;DHT22;5498;50.928;11.598;2023-03-24T15:11:55;14.60;69.50
10891;DHT22;5498;50.928;11.598;2023-03-24T15:14:59;14.60;69.00
10891;DHT22;5498;50.928;11.598;2023-03-24T15:18:01;14.60;68.60
10891;DHT22;5498;50.928;11.598;2023-03-24T15:21:13;14.70;68.30
10891;DHT22;5498;50.928;11.598;2023-03-24T15:24:25;14.70;66.40
10891;DHT22;5498;50.928;11.598;2023-03-24T15:27:30;14.70;66.50
10891;DHT22;5498;50.928;11.598;2023-03-24T15:30:33;14.80;66.70
10891;DHT22;5498;50.928;11.598;2023-03-24T15:33:38;14.80;66.90
10891;DHT22;5498;50.928;11.598;2023-03-24T15:36:40;14.90;66.40
10891;DHT22;5498;50.928;11.598;2023-03-24T15:39:48;14.90;65.80
10891;DHT22;5498;50.928;11.598;2023-03-24T15:42:54;14.90;66.20
10891;DHT22;5498;50.928;11.598;2023-03-24T15:45:58;14.90;66.00
10891;DHT22;5498;50.928;11.598;2023-03-24T15:49:02;14.90;66.10
10891;DHT22;5498;50.928;11.598;2023-03-24T15:52:23;14.90;65.80
10891;DHT22;5498;50.928;11.598;2023-03-24T15:55:29;14.90;66.10
10891;DHT22;5498;50.928;11.598;2023-03-24T15:58:50;14.90;66.20
10891;DHT22;5498;50.928;11.598;2023-03-24T16:01:53;14.90;66.70
10891;DHT22;5498;50.928;11.598;2023-03-24T16:04:57;14.90;66.30
10891;DHT22;5498;50.928;11.598;2023-03-24T16:08:03;14.90;66.40
10891;DHT22;5498;50.928;11.598;2023-03-24T16:11:07;14.90;65.20
10891;DHT22;5498;50.928;11.598;2023-03-24T16:14:22;14.90;65.50
10891;DHT22;5498;50.928;11.598;2023-03-24T16:17:25;14.90;66.00
10891;DHT22;5498;50.928;11.598;2023-03-24T16:20:27;14.90;65.40
10891;DHT22;5498;50.928;11.598;2023-03-24T16:23:29;14.90;64.80
10891;DHT22;5498;50.928;11.598;2023-03-24T16:26:32;14.90;64.80
10891;DHT22;5498;50.928;11.598;2023-03-24T16:29:35;14.90;65.20
10891;DHT22;5498;50.928;11.598;2023-03-24T16:32:37;14.80;65.50
10891;DHT22;5498;50.928;11.598;2023-03-24T16:35:40;14.80;65.30
10891;DHT22;5498;50.928;11.598;2023-03-24T16:38:42;14.80;65.10
10891;DHT22;5498;50.928;11.598;2023-03-24T16:41:46;14.70;65.60
10891;DHT22;5498;50.928;11.598;2023-03-24T16:44:49;14.60;65.40
10891;DHT22;5498;50.928;11.598;2023-03-24T16:47:51;14.60;65.80
10891;DHT22;5498;50.928;11.598;2023-03-24T16:50:53;14.50;65.40
10891;DHT22;5498;50.928;11.598;2023-03-24T16:53:57;14.50;65.60
10891;DHT22;5498;50.928;11.598;2023-03-24T16:56:59;14.40;65.80
10891;DHT22;5498;50.928;11.598;2023-03-24T17:00:03;14.40;65.50
10891;DHT22;5498;50.928;11.598;2023-03-24T17:03:10;14.30;66.40
10891;DHT22;5498;50.928;11.598;2023-03-24T17:06:13;14.30;66.60
10891;DHT22;5498;50.928;11.598;2023-03-24T17:09:16;14.30;67.10
10891;DHT22;5498;50.928;11.598;2023-03-24T17:12:18;14.20;67.00
10891;DHT22;5498;50.928;11.598;2023-03-24T17:15:23;14.20;66.50
10891;DHT22;5498;50.928;11.598;2023-03-24T17:18:26;14.20;67.40
10891;DHT22;5498;50.928;11.598;2023-03-24T17:21:28;14.10;67.40
10891;DHT22;5498;50.928;11.598;2023-03-24T17:24:33;14.10;67.50
10891;DHT22;5498;50.928;11.598;2023-03-24T17:27:36;14.10;68.00
10891;DHT22;5498;50.928;11.598;2023-03-24T17:30:39;14.10;67.70
10891;DHT22;5498;50.928;11.598;2023-03-24T17:33:42;14.00;68.10
10891;DHT22;5498;50.928;11.598;2023-03-24T17:36:44;14.00;68.20
10891;DHT22;5498;50.928;11.598;2023-03-24T17:39:46;13.90;67.90
10891;DHT22;5498;50.928;11.598;2023-03-24T17:42:47;13.90;68.50
10891;DHT22;5498;50.928;11.598;2023-03-24T17:45:51;13.90;68.70
10891;DHT22;5498;50.928;11.598;2023-03-24T17:48:53;13.80;69.50
10891;DHT22;5498;50.928;11.598;2023-03-24T17:51:55;13.80;70.10
10891;DHT22;5498;50.928;11.598;2023-03-24T17:54:57;13.70;70.80
10891;DHT22;5498;50.928;11.598;2023-03-24T17:57:58;13.60;71.20
10891;DHT22;5498;50.928;11.598;2023-03-24T18:01:03;13.60;71.50
10891;DHT22;5498;50.928;11.598;2023-03-24T18:04:07;13.50;72.70
10891;DHT22;5498;50.928;11.598;2023-03-24T18:07:08;13.50;73.00
10891;DHT22;5498;50.928;11.598;2023-03-24T18:10:11;13.40;73.10
10891;DHT22;5498;50.928;11.598;2023-03-24T18:13:13;13.30;73.90
10891;DHT22;5498;50.928;11.598;2023-03-24T18:16:16;13.30;74.20
10891;DHT22;5498;50.928;11.598;2023-03-24T18:19:19;13.30;74.50
10891;DHT22;5498;50.928;11.598;2023-03-24T18:22:21;13.30;74.60
10891;DHT22;5498;50.928;11.598;2023-03-24T18:25:25;13.60;74.40
10891;DHT22;5498;50.928;11.598;2023-03-24T18:28:27;13.20;74.70
10891;DHT22;5498;50.928;11.598;2023-03-24T18:31:30;13.10;75.20
10891;DHT22;5498;50.928;11.598;2023-03-24T18:34:33;13.00;74.80
10891;DHT22;5498;50.928;11.598;2023-03-24T18:37:35;12.90;75.80
10891;DHT22;5498;50.928;11.598;2023-03-24T18:40:37;12.90;75.90
10891;DHT22;5498;50.928;11.598;2023-03-24T18:43:39;12.80;76.60
10891;DHT22;5498;50.928;11.598;2023-03-24T18:46:42;12.80;76.80
10891;DHT22;5498;50.928;11.598;2023-03-24T18:49:44;12.80;76.30
10891;DHT22;5498;50.928;11.598;2023-03-24T18:52:46;12.80;76.70
10891;DHT22;5498;50.928;11.598;2023-03-24T18:55:49;12.80;76.70
10891;DHT22;5498;50.928;11.598;2023-03-24T18:58:51;13.10;76.90
10891;DHT22;5498;50.928;11.598;2023-03-24T19:01:56;12.80;76.90
10891;DHT22;5498;50.928;11.598;2023-03-24T19:04:59;12.80;76.80
10891;DHT22;5498;50.928;11.598;2023-03-24T19:08:01;12.80;77.20
10891;DHT22;5498;50.928;11.598;2023-03-24T19:11:07;13.00;77.40
10891;DHT22;5498;50.928;11.598;2023-03-24T19:14:11;12.70;78.00
10891;DHT22;5498;50.928;11.598;2023-03-24T19:17:15;12.60;77.00
10891;DHT22;5498;50.928;11.598;2023-03-24T19:20:16;12.60;77.60
10891;DHT22;5498;50.928;11.598;2023-03-24T19:23:18;12.60;78.00
10891;DHT22;5498;50.928;11.598;2023-03-24T19:26:21;12.60;77.20
10891;DHT22;5498;50.928;11.598;2023-03-24T19:29:23;12.50;78.40
10891;DHT22;5498;50.928;11.598;2023-03-24T19:32:26;12.50;78.50
10891;DHT22;5498;50.928;11.598;2023-03-24T19:35:28;12.40;78.70
10891;DHT22;5498;50.928;11.598;2023-03-24T19:38:30;12.40;78.70
10891;DHT22;5498;50.928;11.598;2023-03-24T19:41:32;12.40;79.50
10891;DHT22;5498;50.928;11.598;2023-03-24T19:44:34;12.30;79.40
10891;DHT22;5498;50.928;11.598;2023-03-24T19:47:44;12.30;79.70